RPA3613 KEWR-CYUL
Flight info
| Callsign | RPA3613 |
|---|---|
| Flight time | 1h 4m |
| Altitude | 35000 |
| Route | GREKI DCT JUDDS DCT CAM DCT JASDU DCT PBERG CARTR5 |
| Aircraft | E75L/M-SDE3GILORVW/S |
Departure
| Time | 2026-04-21 05:26 |
|---|---|
| Airport | Newark Liberty International Airport (KEWR) |
Arrival
| Time | 2026-04-21 06:31 |
|---|---|
| Airport | Montreal / Pierre Elliott Trudeau International Airport (CYUL) |
| Time | Latitude | Longitude | Altitude | Speed | Heading |
|---|---|---|---|---|---|
| 2026-04-21 05:04 | 40.69342 | -74.17227 | 20 ft | 0 kts | 12° |
| 2026-04-21 05:14 | 40.69328 | -74.17231 | 22 ft | 4 kts | 12° |
| 2026-04-21 05:14 | 40.69303 | -74.17238 | 22 ft | 4 kts | 359° |
| 2026-04-21 05:14 | 40.69288 | -74.17220 | 23 ft | 4 kts | 290° |
| 2026-04-21 05:14 | 40.69278 | -74.17195 | 20 ft | 4 kts | 305° |
| 2026-04-21 05:15 | 40.69260 | -74.17179 | 24 ft | 4 kts | 17° |
| 2026-04-21 05:15 | 40.69256 | -74.17193 | 24 ft | 1 kts | 116° |
| 2026-04-21 05:15 | 40.69265 | -74.17216 | 23 ft | 0 kts | 116° |
| 2026-04-21 05:17 | 40.69264 | -74.17213 | 23 ft | 2 kts | 116° |
| 2026-04-21 05:18 | 40.69247 | -74.17170 | 20 ft | 9 kts | 116° |
| 2026-04-21 05:18 | 40.69213 | -74.17077 | 20 ft | 13 kts | 116° |
| 2026-04-21 05:18 | 40.69209 | -74.17049 | 20 ft | 3 kts | 58° |
| 2026-04-21 05:18 | 40.69235 | -74.17027 | 21 ft | 7 kts | 27° |
| 2026-04-21 05:19 | 40.69301 | -74.16983 | 20 ft | 14 kts | 26° |
| 2026-04-21 05:19 | 40.69391 | -74.16927 | 20 ft | 15 kts | 24° |
| 2026-04-21 05:19 | 40.69491 | -74.16865 | 20 ft | 17 kts | 24° |
| 2026-04-21 05:19 | 40.69602 | -74.16793 | 20 ft | 19 kts | 25° |
| 2026-04-21 05:20 | 40.69724 | -74.16717 | 21 ft | 20 kts | 24° |
| 2026-04-21 05:20 | 40.69852 | -74.16634 | 19 ft | 18 kts | 25° |
| 2026-04-21 05:20 | 40.69888 | -74.16611 | 19 ft | 7 kts | 26° |
| 2026-04-21 05:20 | 40.69903 | -74.16563 | 19 ft | 8 kts | 98° |
| 2026-04-21 05:21 | 40.69881 | -74.16431 | 19 ft | 21 kts | 107° |
| 2026-04-21 05:21 | 40.69834 | -74.16328 | 19 ft | 6 kts | 168° |
| 2026-04-21 05:21 | 40.69785 | -74.16356 | 19 ft | 12 kts | 208° |
| 2026-04-21 05:21 | 40.69689 | -74.16420 | 21 ft | 17 kts | 204° |
| 2026-04-21 05:22 | 40.69570 | -74.16494 | 20 ft | 20 kts | 206° |
| 2026-04-21 05:22 | 40.69436 | -74.16583 | 20 ft | 22 kts | 205° |
| 2026-04-21 05:22 | 40.69289 | -74.16673 | 23 ft | 24 kts | 206° |
| 2026-04-21 05:22 | 40.69134 | -74.16778 | 20 ft | 26 kts | 207° |
| 2026-04-21 05:23 | 40.68969 | -74.16874 | 20 ft | 27 kts | 206° |
| 2026-04-21 05:23 | 40.68797 | -74.16987 | 20 ft | 28 kts | 206° |
| 2026-04-21 05:23 | 40.68618 | -74.17100 | 20 ft | 29 kts | 206° |
| 2026-04-21 05:23 | 40.68435 | -74.17219 | 21 ft | 29 kts | 204° |
| 2026-04-21 05:24 | 40.68245 | -74.17337 | 20 ft | 31 kts | 207° |
| 2026-04-21 05:24 | 40.68048 | -74.17459 | 19 ft | 32 kts | 204° |
| 2026-04-21 05:24 | 40.67847 | -74.17590 | 20 ft | 29 kts | 207° |
| 2026-04-21 05:24 | 40.67723 | -74.17672 | 20 ft | 6 kts | 224° |
| 2026-04-21 05:25 | 40.67722 | -74.17688 | 21 ft | 3 kts | 291° |
| 2026-04-21 05:25 | 40.67743 | -74.17735 | 19 ft | 9 kts | 301° |
| 2026-04-21 05:25 | 40.67785 | -74.17783 | 22 ft | 8 kts | 356° |
| 2026-04-21 05:25 | 40.67900 | -74.17715 | 19 ft | 46 kts | 25° |
| 2026-04-21 05:26 | 40.68418 | -74.17388 | 21 ft | 116 kts | 25° |
| 2026-04-21 05:26 | 40.69288 | -74.16820 | 284 ft | 152 kts | 22° |
| 2026-04-21 05:26 | 40.70298 | -74.16163 | 971 ft | 172 kts | 30° |
| 2026-04-21 05:26 | 40.71276 | -74.15189 | 1541 ft | 182 kts | 39° |
| 2026-04-21 05:27 | 40.72232 | -74.14024 | 2075 ft | 194 kts | 40° |
| 2026-04-21 05:27 | 40.73236 | -74.12797 | 2771 ft | 200 kts | 39° |
| 2026-04-21 05:27 | 40.74282 | -74.11554 | 3467 ft | 207 kts | 39° |
| 2026-04-21 05:27 | 40.75404 | -74.10216 | 3849 ft | 226 kts | 36° |
| 2026-04-21 05:28 | 40.76730 | -74.08983 | 4200 ft | 242 kts | 29° |
| 2026-04-21 05:28 | 40.78194 | -74.07786 | 4722 ft | 251 kts | 30° |
| 2026-04-21 05:28 | 40.79615 | -74.06421 | 5378 ft | 254 kts | 35° |
| 2026-04-21 05:28 | 40.80988 | -74.04919 | 5941 ft | 259 kts | 37° |
| 2026-04-21 05:29 | 40.82370 | -74.03367 | 6489 ft | 262 kts | 37° |
| 2026-04-21 05:29 | 40.83777 | -74.01802 | 7048 ft | 265 kts | 36° |
| 2026-04-21 05:29 | 40.85210 | -74.00248 | 7575 ft | 268 kts | 36° |
| 2026-04-21 05:29 | 40.86657 | -73.98691 | 8080 ft | 271 kts | 36° |
| 2026-04-21 05:30 | 40.88111 | -73.97125 | 8590 ft | 273 kts | 35° |
| 2026-04-21 05:30 | 40.89593 | -73.95524 | 9103 ft | 276 kts | 35° |
| 2026-04-21 05:30 | 40.91090 | -73.93898 | 9618 ft | 279 kts | 35° |
| 2026-04-21 05:30 | 40.92599 | -73.92260 | 10099 ft | 282 kts | 35° |
| 2026-04-21 05:31 | 40.94174 | -73.90554 | 10157 ft | 300 kts | 35° |
| 2026-04-21 05:31 | 40.95834 | -73.88754 | 10265 ft | 314 kts | 36° |
| 2026-04-21 05:31 | 40.97508 | -73.86926 | 10614 ft | 316 kts | 36° |
| 2026-04-21 05:31 | 40.99202 | -73.85076 | 11076 ft | 316 kts | 35° |
| 2026-04-21 05:32 | 41.00903 | -73.83222 | 11525 ft | 316 kts | 35° |
| 2026-04-21 05:32 | 41.02605 | -73.81365 | 11970 ft | 318 kts | 35° |
| 2026-04-21 05:32 | 41.04318 | -73.79493 | 12426 ft | 319 kts | 35° |
| 2026-04-21 05:32 | 41.06033 | -73.77619 | 12906 ft | 321 kts | 35° |
| 2026-04-21 05:33 | 41.07180 | -73.76364 | 13232 ft | 322 kts | 35° |
| 2026-04-21 05:33 | 41.08912 | -73.74469 | 13739 ft | 323 kts | 35° |
| 2026-04-21 05:33 | 41.10653 | -73.72564 | 14257 ft | 325 kts | 34° |
| 2026-04-21 05:33 | 41.12395 | -73.70652 | 14771 ft | 325 kts | 34° |
| 2026-04-21 05:34 | 41.14137 | -73.68742 | 15313 ft | 325 kts | 33° |
| 2026-04-21 05:34 | 41.15883 | -73.66826 | 15838 ft | 325 kts | 33° |
| 2026-04-21 05:34 | 41.17608 | -73.64934 | 16340 ft | 326 kts | 33° |
| 2026-04-21 05:34 | 41.19377 | -73.62986 | 16665 ft | 332 kts | 33° |
| 2026-04-21 05:35 | 41.21158 | -73.61029 | 17129 ft | 334 kts | 33° |
| 2026-04-21 05:35 | 41.22958 | -73.59048 | 17141 ft | 334 kts | 33° |
| 2026-04-21 05:35 | 41.24706 | -73.57110 | 16913 ft | 322 kts | 33° |
| 2026-04-21 05:35 | 41.26416 | -73.55219 | 16974 ft | 319 kts | 33° |
| 2026-04-21 05:36 | 41.28120 | -73.53346 | 17432 ft | 325 kts | 33° |
| 2026-04-21 05:36 | 41.29881 | -73.51410 | 17923 ft | 330 kts | 32° |
| 2026-04-21 05:36 | 41.31659 | -73.49448 | 18485 ft | 333 kts | 32° |
| 2026-04-21 05:36 | 41.33444 | -73.47472 | 19002 ft | 336 kts | 32° |
| 2026-04-21 05:37 | 41.35248 | -73.45473 | 19522 ft | 337 kts | 32° |
| 2026-04-21 05:37 | 41.37062 | -73.43460 | 20074 ft | 339 kts | 32° |
| 2026-04-21 05:37 | 41.38867 | -73.41454 | 20676 ft | 339 kts | 31° |
| 2026-04-21 05:37 | 41.40666 | -73.39458 | 21237 ft | 341 kts | 31° |
| 2026-04-21 05:38 | 41.42490 | -73.37430 | 21815 ft | 342 kts | 31° |
| 2026-04-21 05:38 | 41.44322 | -73.35393 | 22382 ft | 343 kts | 31° |
| 2026-04-21 05:38 | 41.46168 | -73.33338 | 22956 ft | 345 kts | 31° |
| 2026-04-21 05:38 | 41.47991 | -73.31305 | 23532 ft | 346 kts | 30° |
| 2026-04-21 05:39 | 41.49795 | -73.29132 | 24142 ft | 352 kts | 35° |
| 2026-04-21 05:39 | 41.51526 | -73.26778 | 24582 ft | 357 kts | 36° |
| 2026-04-21 05:39 | 41.53268 | -73.24395 | 25019 ft | 360 kts | 36° |
| 2026-04-21 05:39 | 41.55040 | -73.22006 | 25449 ft | 363 kts | 36° |
| 2026-04-21 05:40 | 41.56834 | -73.19610 | 25865 ft | 366 kts | 36° |
| 2026-04-21 05:40 | 41.58637 | -73.17210 | 26308 ft | 367 kts | 36° |
| 2026-04-21 05:40 | 41.60452 | -73.14797 | 26813 ft | 367 kts | 36° |
| 2026-04-21 05:40 | 41.62430 | -73.12740 | 26862 ft | 364 kts | 20° |
| 2026-04-21 05:41 | 41.64819 | -73.11736 | 27069 ft | 357 kts | 3° |
| 2026-04-21 05:41 | 41.67277 | -73.11726 | 27592 ft | 350 kts | 352° |
| 2026-04-21 05:41 | 41.69694 | -73.11978 | 28172 ft | 348 kts | 353° |
| 2026-04-21 05:41 | 41.72111 | -73.12204 | 28696 ft | 348 kts | 353° |
| 2026-04-21 05:42 | 41.74525 | -73.12498 | 29207 ft | 347 kts | 352° |
| 2026-04-21 05:42 | 41.76893 | -73.12839 | 29728 ft | 347 kts | 351° |
| 2026-04-21 05:42 | 41.79297 | -73.13208 | 30254 ft | 347 kts | 351° |
| 2026-04-21 05:42 | 41.81695 | -73.13582 | 30674 ft | 348 kts | 351° |
| 2026-04-21 05:43 | 41.84112 | -73.13973 | 30948 ft | 351 kts | 351° |
| 2026-04-21 05:43 | 41.86541 | -73.14375 | 31256 ft | 353 kts | 351° |
| 2026-04-21 05:43 | 41.88990 | -73.14778 | 31576 ft | 355 kts | 351° |
| 2026-04-21 05:43 | 41.91448 | -73.15185 | 31889 ft | 357 kts | 351° |
| 2026-04-21 05:44 | 41.93894 | -73.15591 | 32190 ft | 359 kts | 350° |
| 2026-04-21 05:44 | 41.96411 | -73.16010 | 32489 ft | 361 kts | 350° |
| 2026-04-21 05:44 | 41.98874 | -73.16425 | 32785 ft | 363 kts | 350° |
| 2026-04-21 05:44 | 42.01401 | -73.16853 | 33060 ft | 365 kts | 350° |
| 2026-04-21 05:45 | 42.03927 | -73.17283 | 33324 ft | 366 kts | 350° |
| 2026-04-21 05:45 | 42.06458 | -73.17716 | 33591 ft | 368 kts | 350° |
| 2026-04-21 05:45 | 42.09013 | -73.18156 | 33834 ft | 370 kts | 350° |
| 2026-04-21 05:45 | 42.11512 | -73.18585 | 34026 ft | 365 kts | 350° |
| 2026-04-21 05:46 | 42.16609 | -73.19504 | 34015 ft | 370 kts | 350° |
| 2026-04-21 05:46 | 42.21725 | -73.20436 | 33953 ft | 371 kts | 350° |
| 2026-04-21 05:47 | 42.26810 | -73.21360 | 33936 ft | 371 kts | 350° |
| 2026-04-21 05:47 | 42.31929 | -73.22286 | 33937 ft | 371 kts | 350° |
| 2026-04-21 05:48 | 42.37051 | -73.23215 | 33928 ft | 371 kts | 350° |
| 2026-04-21 05:48 | 42.42152 | -73.24145 | 33931 ft | 372 kts | 350° |
| 2026-04-21 05:49 | 42.47298 | -73.25080 | 33937 ft | 373 kts | 350° |
| 2026-04-21 05:49 | 42.52439 | -73.26016 | 33938 ft | 373 kts | 350° |
| 2026-04-21 05:50 | 42.57584 | -73.26956 | 33964 ft | 373 kts | 350° |
| 2026-04-21 05:50 | 42.62704 | -73.27892 | 33963 ft | 373 kts | 350° |
| 2026-04-21 05:51 | 42.67846 | -73.28835 | 33966 ft | 373 kts | 350° |
| 2026-04-21 05:51 | 42.73001 | -73.29781 | 33967 ft | 373 kts | 350° |
| 2026-04-21 05:52 | 42.78109 | -73.30720 | 33958 ft | 368 kts | 349° |
| 2026-04-21 05:52 | 42.83159 | -73.31649 | 33951 ft | 364 kts | 349° |
| 2026-04-21 05:53 | 42.88160 | -73.32571 | 33961 ft | 365 kts | 349° |
| 2026-04-21 05:53 | 42.93200 | -73.33502 | 33952 ft | 365 kts | 349° |
| 2026-04-21 05:54 | 42.98234 | -73.34434 | 33991 ft | 365 kts | 349° |
| 2026-04-21 05:54 | 43.03272 | -73.35123 | 34012 ft | 367 kts | 354° |
| 2026-04-21 05:55 | 43.08371 | -73.35435 | 33926 ft | 365 kts | 354° |
| 2026-04-21 05:55 | 43.13455 | -73.35830 | 33962 ft | 366 kts | 353° |
| 2026-04-21 05:56 | 43.18510 | -73.36252 | 33962 ft | 365 kts | 353° |
| 2026-04-21 05:56 | 43.23612 | -73.36681 | 33966 ft | 367 kts | 353° |
| 2026-04-21 05:57 | 43.28712 | -73.37109 | 33961 ft | 366 kts | 353° |
| 2026-04-21 05:57 | 43.33723 | -73.37528 | 34827 ft | 353 kts | 353° |
| 2026-04-21 05:58 | 43.36217 | -73.37741 | 34749 ft | 364 kts | 353° |
| 2026-04-21 05:58 | 43.38766 | -73.37957 | 34668 ft | 367 kts | 353° |
| 2026-04-21 05:58 | 43.43724 | -73.38370 | 34561 ft | 343 kts | 353° |
| 2026-04-21 05:59 | 43.46045 | -73.38564 | 34367 ft | 334 kts | 353° |
| 2026-04-21 05:59 | 43.48360 | -73.38761 | 34429 ft | 335 kts | 353° |
| 2026-04-21 06:00 | 43.55679 | -73.39390 | 34335 ft | 364 kts | 354° |
| 2026-04-21 06:00 | 43.60772 | -73.39819 | 34347 ft | 371 kts | 354° |
| 2026-04-21 06:01 | 43.65935 | -73.40255 | 34351 ft | 372 kts | 354° |
| 2026-04-21 06:01 | 43.71092 | -73.40695 | 34356 ft | 371 kts | 353° |
| 2026-04-21 06:02 | 43.76219 | -73.41294 | 34355 ft | 370 kts | 352° |
| 2026-04-21 06:02 | 43.81362 | -73.41923 | 34346 ft | 372 kts | 352° |
| 2026-04-21 06:03 | 43.86529 | -73.42532 | 34352 ft | 372 kts | 352° |
| 2026-04-21 06:03 | 43.91655 | -73.43136 | 34357 ft | 371 kts | 352° |
| 2026-04-21 06:04 | 43.96812 | -73.43744 | 34357 ft | 371 kts | 352° |
| 2026-04-21 06:04 | 44.01981 | -73.44355 | 34350 ft | 373 kts | 353° |
| 2026-04-21 06:05 | 44.07164 | -73.44970 | 34359 ft | 373 kts | 353° |
| 2026-04-21 06:05 | 44.12341 | -73.45584 | 34356 ft | 373 kts | 353° |
| 2026-04-21 06:06 | 44.17493 | -73.46199 | 33179 ft | 376 kts | 352° |
| 2026-04-21 06:06 | 44.20102 | -73.46508 | 31833 ft | 374 kts | 353° |
| 2026-04-21 06:06 | 44.22272 | -73.46769 | 30729 ft | 371 kts | 351° |
| 2026-04-21 06:06 | 44.24814 | -73.47140 | 29141 ft | 365 kts | 353° |
| 2026-04-21 06:07 | 44.27345 | -73.47403 | 27446 ft | 363 kts | 353° |
| 2026-04-21 06:07 | 44.29819 | -73.47662 | 26319 ft | 352 kts | 353° |
| 2026-04-21 06:07 | 44.32197 | -73.47921 | 26015 ft | 339 kts | 353° |
| 2026-04-21 06:07 | 44.34570 | -73.48197 | 25615 ft | 344 kts | 353° |
| 2026-04-21 06:08 | 44.36972 | -73.48483 | 25164 ft | 347 kts | 353° |
| 2026-04-21 06:08 | 44.39375 | -73.48767 | 24704 ft | 345 kts | 353° |
| 2026-04-21 06:08 | 44.41770 | -73.49052 | 24254 ft | 343 kts | 353° |
| 2026-04-21 06:08 | 44.44139 | -73.49334 | 23753 ft | 341 kts | 353° |
| 2026-04-21 06:09 | 44.46487 | -73.49612 | 23352 ft | 338 kts | 353° |
| 2026-04-21 06:09 | 44.48837 | -73.49893 | 22885 ft | 338 kts | 353° |
| 2026-04-21 06:09 | 44.51146 | -73.50167 | 22442 ft | 336 kts | 353° |
| 2026-04-21 06:09 | 44.53476 | -73.50446 | 22000 ft | 335 kts | 353° |
| 2026-04-21 06:10 | 44.55797 | -73.50721 | 21560 ft | 333 kts | 353° |
| 2026-04-21 06:10 | 44.58105 | -73.50998 | 21123 ft | 333 kts | 353° |
| 2026-04-21 06:10 | 44.60417 | -73.51273 | 20675 ft | 332 kts | 353° |
| 2026-04-21 06:10 | 44.62688 | -73.51545 | 20231 ft | 331 kts | 353° |
| 2026-04-21 06:11 | 44.64987 | -73.51818 | 19794 ft | 330 kts | 353° |
| 2026-04-21 06:11 | 44.67268 | -73.52091 | 19359 ft | 329 kts | 353° |
| 2026-04-21 06:11 | 44.69548 | -73.52363 | 18896 ft | 328 kts | 353° |
| 2026-04-21 06:11 | 44.71802 | -73.52631 | 18477 ft | 321 kts | 353° |
| 2026-04-21 06:12 | 44.74027 | -73.52866 | 18064 ft | 320 kts | 354° |
| 2026-04-21 06:12 | 44.76252 | -73.53102 | 17612 ft | 322 kts | 354° |
| 2026-04-21 06:12 | 44.78469 | -73.53337 | 17203 ft | 324 kts | 354° |
| 2026-04-21 06:12 | 44.80720 | -73.53581 | 16776 ft | 324 kts | 354° |
| 2026-04-21 06:13 | 44.82965 | -73.53825 | 16336 ft | 325 kts | 354° |
| 2026-04-21 06:13 | 44.85217 | -73.54068 | 15906 ft | 324 kts | 354° |
| 2026-04-21 06:13 | 44.87475 | -73.54313 | 15477 ft | 325 kts | 354° |
| 2026-04-21 06:13 | 44.89735 | -73.54561 | 15036 ft | 326 kts | 354° |
| 2026-04-21 06:14 | 44.92004 | -73.54812 | 14603 ft | 326 kts | 354° |
| 2026-04-21 06:14 | 44.94271 | -73.55061 | 14168 ft | 327 kts | 354° |
| 2026-04-21 06:14 | 44.96532 | -73.55310 | 13707 ft | 318 kts | 354° |
| 2026-04-21 06:14 | 44.98619 | -73.55535 | 13295 ft | 294 kts | 354° |
| 2026-04-21 06:15 | 45.00595 | -73.55751 | 12937 ft | 277 kts | 353° |
| 2026-04-21 06:15 | 45.02497 | -73.55962 | 12579 ft | 272 kts | 353° |
| 2026-04-21 06:15 | 45.04393 | -73.56171 | 12228 ft | 272 kts | 353° |
| 2026-04-21 06:15 | 45.06275 | -73.56382 | 11872 ft | 275 kts | 353° |
| 2026-04-21 06:16 | 45.08185 | -73.56594 | 11513 ft | 274 kts | 353° |
| 2026-04-21 06:16 | 45.10058 | -73.56799 | 11267 ft | 264 kts | 353° |
| 2026-04-21 06:16 | 45.11834 | -73.56990 | 11247 ft | 248 kts | 353° |
| 2026-04-21 06:16 | 45.13505 | -73.57171 | 11217 ft | 234 kts | 353° |
| 2026-04-21 06:17 | 45.15080 | -73.57342 | 11317 ft | 220 kts | 353° |
| 2026-04-21 06:17 | 45.16615 | -73.57513 | 11380 ft | 225 kts | 353° |
| 2026-04-21 06:17 | 45.18185 | -73.57691 | 11381 ft | 227 kts | 353° |
| 2026-04-21 06:17 | 45.19768 | -73.57867 | 11379 ft | 228 kts | 353° |
| 2026-04-21 06:18 | 45.21348 | -73.58044 | 11320 ft | 230 kts | 353° |
| 2026-04-21 06:18 | 45.23013 | -73.58234 | 10529 ft | 250 kts | 352° |
| 2026-04-21 06:18 | 45.24782 | -73.58435 | 9583 ft | 258 kts | 352° |
| 2026-04-21 06:18 | 45.26563 | -73.58629 | 8763 ft | 256 kts | 352° |
| 2026-04-21 06:19 | 45.28255 | -73.58836 | 8513 ft | 232 kts | 345° |
| 2026-04-21 06:19 | 45.29643 | -73.59747 | 8293 ft | 216 kts | 316° |
| 2026-04-21 06:19 | 45.30640 | -73.61291 | 8134 ft | 210 kts | 309° |
| 2026-04-21 06:19 | 45.31600 | -73.62865 | 7851 ft | 212 kts | 309° |
| 2026-04-21 06:20 | 45.32561 | -73.64462 | 7549 ft | 212 kts | 308° |
| 2026-04-21 06:20 | 45.33514 | -73.66054 | 7257 ft | 212 kts | 308° |
| 2026-04-21 06:20 | 45.34472 | -73.67650 | 6960 ft | 211 kts | 308° |
| 2026-04-21 06:20 | 45.35157 | -73.69451 | 6634 ft | 208 kts | 279° |
| 2026-04-21 06:21 | 45.34995 | -73.71454 | 6323 ft | 210 kts | 250° |
| 2026-04-21 06:21 | 45.34134 | -73.73148 | 6032 ft | 213 kts | 230° |
| 2026-04-21 06:21 | 45.33076 | -73.74635 | 5736 ft | 214 kts | 227° |
| 2026-04-21 06:21 | 45.32358 | -73.75598 | 5537 ft | 214 kts | 227° |
| 2026-04-21 06:22 | 45.31261 | -73.77039 | 5239 ft | 215 kts | 226° |
| 2026-04-21 06:22 | 45.30157 | -73.78485 | 4926 ft | 216 kts | 226° |
| 2026-04-21 06:22 | 45.29050 | -73.79931 | 4608 ft | 217 kts | 225° |
| 2026-04-21 06:22 | 45.27932 | -73.81392 | 4290 ft | 218 kts | 225° |
| 2026-04-21 06:23 | 45.26814 | -73.82850 | 3974 ft | 219 kts | 225° |
| 2026-04-21 06:23 | 45.25687 | -73.84319 | 3659 ft | 220 kts | 225° |
| 2026-04-21 06:23 | 45.24570 | -73.85772 | 3345 ft | 221 kts | 224° |
| 2026-04-21 06:23 | 45.23472 | -73.87197 | 3369 ft | 209 kts | 224° |
| 2026-04-21 06:24 | 45.22584 | -73.88776 | 3343 ft | 205 kts | 253° |
| 2026-04-21 06:24 | 45.22622 | -73.90744 | 3372 ft | 204 kts | 291° |
| 2026-04-21 06:24 | 45.23477 | -73.92359 | 3252 ft | 211 kts | 323° |
| 2026-04-21 06:24 | 45.24801 | -73.93243 | 3101 ft | 209 kts | 338° |
| 2026-04-21 06:25 | 45.26141 | -73.93946 | 2967 ft | 199 kts | 338° |
| 2026-04-21 06:25 | 45.27355 | -73.94631 | 2999 ft | 182 kts | 336° |
| 2026-04-21 06:25 | 45.28505 | -73.95320 | 2968 ft | 177 kts | 336° |
| 2026-04-21 06:25 | 45.29665 | -73.95871 | 2974 ft | 179 kts | 358° |
| 2026-04-21 06:26 | 45.30815 | -73.95287 | 3087 ft | 179 kts | 28° |
| 2026-04-21 06:26 | 45.31981 | -73.94561 | 3116 ft | 184 kts | 15° |
| 2026-04-21 06:26 | 45.33094 | -73.93669 | 3035 ft | 189 kts | 43° |
| 2026-04-21 06:26 | 45.33979 | -73.92307 | 2989 ft | 184 kts | 44° |
| 2026-04-21 06:27 | 45.34924 | -73.91103 | 3023 ft | 183 kts | 38° |
| 2026-04-21 06:27 | 45.35891 | -73.89905 | 2999 ft | 184 kts | 41° |
| 2026-04-21 06:27 | 45.36839 | -73.88629 | 2761 ft | 190 kts | 42° |
| 2026-04-21 06:27 | 45.37794 | -73.87384 | 2484 ft | 186 kts | 41° |
| 2026-04-21 06:28 | 45.38732 | -73.86170 | 2213 ft | 177 kts | 42° |
| 2026-04-21 06:28 | 45.39610 | -73.85019 | 1965 ft | 165 kts | 43° |
| 2026-04-21 06:28 | 45.40409 | -73.83969 | 1746 ft | 148 kts | 43° |
| 2026-04-21 06:28 | 45.41143 | -73.83012 | 1524 ft | 138 kts | 43° |
| 2026-04-21 06:29 | 45.41836 | -73.82105 | 1342 ft | 134 kts | 43° |
| 2026-04-21 06:29 | 45.42522 | -73.81206 | 1154 ft | 135 kts | 43° |
| 2026-04-21 06:29 | 45.43216 | -73.80300 | 940 ft | 135 kts | 43° |
| 2026-04-21 06:29 | 45.43903 | -73.79399 | 740 ft | 134 kts | 44° |
| 2026-04-21 06:30 | 45.44565 | -73.78512 | 589 ft | 130 kts | 44° |
| 2026-04-21 06:30 | 45.45238 | -73.77644 | 383 ft | 132 kts | 44° |
| 2026-04-21 06:30 | 45.45914 | -73.76758 | 217 ft | 132 kts | 44° |
| 2026-04-21 06:30 | 45.46564 | -73.75902 | 120 ft | 117 kts | 45° |
| 2026-04-21 06:31 | 45.47077 | -73.75228 | 114 ft | 79 kts | 39° |
| 2026-04-21 06:31 | 45.47337 | -73.74848 | 114 ft | 31 kts | 74° |
| 2026-04-21 06:31 | 45.47385 | -73.74606 | 114 ft | 21 kts | 73° |
| 2026-04-21 06:31 | 45.47383 | -73.74514 | 114 ft | 3 kts | 146° |
| 2026-04-21 06:32 | 45.47362 | -73.74509 | 114 ft | 4 kts | 192° |
| 2026-04-21 06:32 | 45.47325 | -73.74533 | 113 ft | 9 kts | 211° |
| 2026-04-21 06:32 | 45.47259 | -73.74606 | 114 ft | 15 kts | 224° |
| 2026-04-21 06:32 | 45.47171 | -73.74720 | 113 ft | 19 kts | 221° |
| 2026-04-21 06:33 | 45.47069 | -73.74851 | 113 ft | 21 kts | 222° |
| 2026-04-21 06:33 | 45.46954 | -73.74997 | 113 ft | 23 kts | 224° |
| 2026-04-21 06:33 | 45.46833 | -73.75163 | 114 ft | 25 kts | 223° |
| 2026-04-21 06:33 | 45.46698 | -73.75335 | 112 ft | 27 kts | 221° |
| 2026-04-21 06:34 | 45.46560 | -73.75518 | 114 ft | 27 kts | 221° |
| 2026-04-21 06:34 | 45.46421 | -73.75692 | 113 ft | 20 kts | 206° |
| 2026-04-21 06:34 | 45.46304 | -73.75725 | 114 ft | 18 kts | 192° |
| 2026-04-21 06:34 | 45.46190 | -73.75723 | 114 ft | 17 kts | 176° |
| 2026-04-21 06:35 | 45.46133 | -73.75752 | 114 ft | 5 kts | 249° |
| 2026-04-21 06:35 | 45.46126 | -73.75837 | 112 ft | 13 kts | 269° |
| 2026-04-21 06:35 | 45.46117 | -73.75948 | 114 ft | 6 kts | 232° |
| 2026-04-21 06:35 | 45.46085 | -73.75959 | 114 ft | 7 kts | 181° |
| 2026-04-21 06:36 | 45.46006 | -73.75959 | 114 ft | 15 kts | 176° |
| 2026-04-21 06:36 | 45.45917 | -73.75953 | 114 ft | 12 kts | 177° |
| 2026-04-21 06:36 | 45.45827 | -73.75934 | 114 ft | 13 kts | 166° |
| 2026-04-21 06:36 | 45.45767 | -73.75864 | 114 ft | 11 kts | 129° |
| 2026-04-21 06:37 | 45.45720 | -73.75772 | 114 ft | 13 kts | 128° |
| 2026-04-21 06:37 | 45.45667 | -73.75715 | 113 ft | 8 kts | 176° |
| 2026-04-21 06:37 | 45.45596 | -73.75700 | 114 ft | 12 kts | 168° |
| 2026-04-21 06:37 | 45.45505 | -73.75676 | 114 ft | 15 kts | 170° |
| 2026-04-21 06:38 | 45.45394 | -73.75648 | 114 ft | 17 kts | 168° |
| 2026-04-21 06:38 | 45.45347 | -73.75613 | 114 ft | 2 kts | 98° |
| 2026-04-21 06:38 | 45.45350 | -73.75561 | 112 ft | 8 kts | 83° |
| 2026-04-21 06:38 | 45.45359 | -73.75499 | 114 ft | 10 kts | 78° |
| 2026-04-21 06:39 | 45.45381 | -73.75411 | 113 ft | 2 kts | 38° |
| 2026-04-21 06:39 | 45.45399 | -73.75411 | 114 ft | 5 kts | 355° |
| 2026-04-21 06:39 | 45.45448 | -73.75424 | 114 ft | 6 kts | 349° |
| 2026-04-21 06:39 | 45.45484 | -73.75434 | 114 ft | 1 kts | 348° |
| 2026-04-21 06:40 | 45.45495 | -73.75438 | 114 ft | 0 kts | 348° |
| 2026-04-21 06:40 | 45.45490 | -73.75436 | 114 ft | 0 kts | 348° |